Terminal Aerodrome Forecast
Issued by NWS

Home | Current Version | Previous Version | Graphics & Text | Print | Product List | Glossary On
Versions: 1 2 3 4 5 6 7 8 9 10 11 12 13 14 15 16 17
000
FTUS43 KFGF 282100 AAB
TAFBJI
TAF AMD
KBJI 282100Z 2821/2918 29015G22KT 1SM -SN BKN009
     FM290000 29009KT P6SM BKN010
     FM291700 30006KT P6SM OVC015=

USA.gov is the U.S. government's official web portal to all federal, state and local government web resources and services.